sensor_id;sensor_type;location;lat;lon;timestamp;P1;durP1;ratioP1;P2;durP2;ratioP2
37241;SDS011;23135;51.078;12.108;2022-08-21T00:02:22;45.92;;;35.33;;
37241;SDS011;23135;51.078;12.108;2022-08-21T00:04:49;45.90;;;36.63;;
37241;SDS011;23135;51.078;12.108;2022-08-21T00:07:17;43.55;;;34.85;;
37241;SDS011;23135;51.078;12.108;2022-08-21T00:09:43;45.67;;;34.33;;
37241;SDS011;23135;51.078;12.108;2022-08-21T00:12:09;47.63;;;35.72;;
37241;SDS011;23135;51.078;12.108;2022-08-21T00:14:35;43.55;;;34.10;;
37241;SDS011;23135;51.078;12.108;2022-08-21T00:17:02;43.90;;;34.53;;
37241;SDS011;23135;51.078;12.108;2022-08-21T00:19:28;43.25;;;34.88;;
37241;SDS011;23135;51.078;12.108;2022-08-21T00:21:54;46.53;;;35.55;;
37241;SDS011;23135;51.078;12.108;2022-08-21T00:24:21;53.38;;;35.10;;
37241;SDS011;23135;51.078;12.108;2022-08-21T00:26:48;44.67;;;34.22;;
37241;SDS011;23135;51.078;12.108;2022-08-21T00:29:14;39.58;;;31.52;;
37241;SDS011;23135;51.078;12.108;2022-08-21T00:31:41;44.70;;;33.53;;
37241;SDS011;23135;51.078;12.108;2022-08-21T00:34:08;43.53;;;32.15;;
37241;SDS011;23135;51.078;12.108;2022-08-21T00:36:34;47.58;;;32.20;;
37241;SDS011;23135;51.078;12.108;2022-08-21T00:39:01;45.28;;;32.28;;
37241;SDS011;23135;51.078;12.108;2022-08-21T00:41:27;44.20;;;31.25;;
37241;SDS011;23135;51.078;12.108;2022-08-21T00:43:53;45.00;;;32.65;;
37241;SDS011;23135;51.078;12.108;2022-08-21T00:46:20;38.13;;;30.73;;
37241;SDS011;23135;51.078;12.108;2022-08-21T00:48:45;39.75;;;30.95;;
37241;SDS011;23135;51.078;12.108;2022-08-21T00:51:25;43.72;;;31.58;;
37241;SDS011;23135;51.078;12.108;2022-08-21T00:53:57;43.95;;;30.40;;
37241;SDS011;23135;51.078;12.108;2022-08-21T00:56:24;46.60;;;33.47;;
37241;SDS011;23135;51.078;12.108;2022-08-21T00:58:50;40.67;;;28.30;;
37241;SDS011;23135;51.078;12.108;2022-08-21T01:01:17;39.75;;;29.65;;
37241;SDS011;23135;51.078;12.108;2022-08-21T01:03:43;35.50;;;29.33;;
37241;SDS011;23135;51.078;12.108;2022-08-21T01:06:09;40.75;;;30.60;;
37241;SDS011;23135;51.078;12.108;2022-08-21T01:08:35;37.13;;;28.15;;
37241;SDS011;23135;51.078;12.108;2022-08-21T01:11:02;35.47;;;28.35;;
37241;SDS011;23135;51.078;12.108;2022-08-21T01:13:29;35.08;;;28.70;;
37241;SDS011;23135;51.078;12.108;2022-08-21T01:15:58;34.42;;;27.60;;
37241;SDS011;23135;51.078;12.108;2022-08-21T01:18:26;40.22;;;28.98;;
37241;SDS011;23135;51.078;12.108;2022-08-21T01:23:36;39.67;;;27.15;;
37241;SDS011;23135;51.078;12.108;2022-08-21T01:26:03;42.28;;;28.55;;
37241;SDS011;23135;51.078;12.108;2022-08-21T01:28:31;40.35;;;30.75;;
37241;SDS011;23135;51.078;12.108;2022-08-21T01:30:59;36.13;;;27.33;;
37241;SDS011;23135;51.078;12.108;2022-08-21T01:33:27;37.80;;;28.45;;
37241;SDS011;23135;51.078;12.108;2022-08-21T01:35:53;38.15;;;29.20;;
37241;SDS011;23135;51.078;12.108;2022-08-21T01:38:19;37.08;;;28.77;;
37241;SDS011;23135;51.078;12.108;2022-08-21T01:40:45;37.67;;;29.83;;
37241;SDS011;23135;51.078;12.108;2022-08-21T01:43:10;42.00;;;28.25;;
37241;SDS011;23135;51.078;12.108;2022-08-21T01:45:36;38.78;;;27.77;;
37241;SDS011;23135;51.078;12.108;2022-08-21T01:48:02;38.40;;;27.35;;
37241;SDS011;23135;51.078;12.108;2022-08-21T01:50:27;37.92;;;28.92;;
37241;SDS011;23135;51.078;12.108;2022-08-21T01:52:53;38.30;;;28.98;;
37241;SDS011;23135;51.078;12.108;2022-08-21T01:55:19;38.63;;;27.67;;
37241;SDS011;23135;51.078;12.108;2022-08-21T01:57:46;37.47;;;28.50;;
37241;SDS011;23135;51.078;12.108;2022-08-21T02:00:14;42.78;;;29.15;;
37241;SDS011;23135;51.078;12.108;2022-08-21T02:02:41;36.55;;;27.33;;
37241;SDS011;23135;51.078;12.108;2022-08-21T02:05:07;38.60;;;28.00;;
37241;SDS011;23135;51.078;12.108;2022-08-21T02:07:35;38.22;;;27.70;;
37241;SDS011;23135;51.078;12.108;2022-08-21T02:10:06;37.92;;;27.45;;
37241;SDS011;23135;51.078;12.108;2022-08-21T02:12:33;39.65;;;27.30;;
37241;SDS011;23135;51.078;12.108;2022-08-21T02:14:58;35.40;;;26.67;;
37241;SDS011;23135;51.078;12.108;2022-08-21T02:17:25;33.28;;;25.65;;
37241;SDS011;23135;51.078;12.108;2022-08-21T02:19:51;33.35;;;25.85;;
37241;SDS011;23135;51.078;12.108;2022-08-21T02:22:16;36.88;;;26.48;;
37241;SDS011;23135;51.078;12.108;2022-08-21T02:24:42;34.53;;;26.52;;
37241;SDS011;23135;51.078;12.108;2022-08-21T02:27:07;39.63;;;28.38;;
37241;SDS011;23135;51.078;12.108;2022-08-21T02:29:33;38.65;;;27.88;;
37241;SDS011;23135;51.078;12.108;2022-08-21T02:31:59;40.67;;;29.15;;
37241;SDS011;23135;51.078;12.108;2022-08-21T02:34:24;42.85;;;29.63;;
37241;SDS011;23135;51.078;12.108;2022-08-21T02:36:50;39.30;;;29.67;;
37241;SDS011;23135;51.078;12.108;2022-08-21T02:39:15;40.15;;;29.02;;
37241;SDS011;23135;51.078;12.108;2022-08-21T02:41:41;38.33;;;29.35;;
37241;SDS011;23135;51.078;12.108;2022-08-21T02:44:07;39.05;;;28.50;;
37241;SDS011;23135;51.078;12.108;2022-08-21T02:46:32;35.40;;;26.25;;
37241;SDS011;23135;51.078;12.108;2022-08-21T02:48:58;36.13;;;27.58;;
37241;SDS011;23135;51.078;12.108;2022-08-21T02:51:23;45.80;;;28.45;;
37241;SDS011;23135;51.078;12.108;2022-08-21T02:53:49;32.67;;;26.20;;
37241;SDS011;23135;51.078;12.108;2022-08-21T02:56:17;32.58;;;26.38;;
37241;SDS011;23135;51.078;12.108;2022-08-21T02:58:48;31.48;;;26.25;;
37241;SDS011;23135;51.078;12.108;2022-08-21T03:01:17;32.35;;;25.67;;
37241;SDS011;23135;51.078;12.108;2022-08-21T03:03:44;31.80;;;24.90;;
37241;SDS011;23135;51.078;12.108;2022-08-21T03:06:13;29.17;;;24.48;;
37241;SDS011;23135;51.078;12.108;2022-08-21T03:08:40;31.30;;;24.25;;
37241;SDS011;23135;51.078;12.108;2022-08-21T03:11:05;30.80;;;25.15;;
37241;SDS011;23135;51.078;12.108;2022-08-21T03:13:31;32.55;;;24.50;;
37241;SDS011;23135;51.078;12.108;2022-08-21T03:15:57;31.88;;;24.15;;
37241;SDS011;23135;51.078;12.108;2022-08-21T03:18:24;31.23;;;22.88;;
37241;SDS011;23135;51.078;12.108;2022-08-21T03:20:50;30.80;;;22.85;;
37241;SDS011;23135;51.078;12.108;2022-08-21T03:23:16;31.00;;;24.02;;
37241;SDS011;23135;51.078;12.108;2022-08-21T03:25:42;32.00;;;23.50;;
37241;SDS011;23135;51.078;12.108;2022-08-21T03:28:10;28.67;;;22.25;;
37241;SDS011;23135;51.078;12.108;2022-08-21T03:30:38;26.25;;;21.75;;
37241;SDS011;23135;51.078;12.108;2022-08-21T03:33:05;29.00;;;20.85;;
37241;SDS011;23135;51.078;12.108;2022-08-21T03:35:30;25.20;;;19.75;;
37241;SDS011;23135;51.078;12.108;2022-08-21T03:37:56;28.42;;;20.17;;
37241;SDS011;23135;51.078;12.108;2022-08-21T03:40:22;24.05;;;19.52;;
37241;SDS011;23135;51.078;12.108;2022-08-21T03:42:50;28.88;;;17.33;;
37241;SDS011;23135;51.078;12.108;2022-08-21T03:45:16;22.75;;;18.17;;
37241;SDS011;23135;51.078;12.108;2022-08-21T03:47:56;25.25;;;16.85;;
37241;SDS011;23135;51.078;12.108;2022-08-21T03:50:28;19.23;;;16.10;;
37241;SDS011;23135;51.078;12.108;2022-08-21T03:52:57;20.75;;;16.10;;
37241;SDS011;23135;51.078;12.108;2022-08-21T03:55:24;17.63;;;14.15;;
37241;SDS011;23135;51.078;12.108;2022-08-21T03:57:51;19.98;;;13.93;;
37241;SDS011;23135;51.078;12.108;2022-08-21T04:00:17;16.27;;;13.35;;
37241;SDS011;23135;51.078;12.108;2022-08-21T04:02:44;22.33;;;14.27;;
37241;SDS011;23135;51.078;12.108;2022-08-21T04:05:13;17.25;;;13.43;;
37241;SDS011;23135;51.078;12.108;2022-08-21T04:07:51;16.00;;;12.88;;
37241;SDS011;23135;51.078;12.108;2022-08-21T04:10:19;17.90;;;11.55;;
37241;SDS011;23135;51.078;12.108;2022-08-21T04:12:45;15.82;;;11.45;;
37241;SDS011;23135;51.078;12.108;2022-08-21T04:15:10;17.67;;;13.52;;
37241;SDS011;23135;51.078;12.108;2022-08-21T04:17:37;15.63;;;12.20;;
37241;SDS011;23135;51.078;12.108;2022-08-21T04:20:03;15.27;;;11.02;;
37241;SDS011;23135;51.078;12.108;2022-08-21T04:22:29;15.32;;;11.75;;
37241;SDS011;23135;51.078;12.108;2022-08-21T04:24:54;20.50;;;11.65;;
37241;SDS011;23135;51.078;12.108;2022-08-21T04:27:20;16.60;;;11.50;;
37241;SDS011;23135;51.078;12.108;2022-08-21T04:29:45;13.50;;;10.75;;
37241;SDS011;23135;51.078;12.108;2022-08-21T04:32:11;16.10;;;10.55;;
37241;SDS011;23135;51.078;12.108;2022-08-21T04:34:36;16.20;;;11.38;;
37241;SDS011;23135;51.078;12.108;2022-08-21T04:37:02;12.50;;;10.70;;
37241;SDS011;23135;51.078;12.108;2022-08-21T04:39:28;13.27;;;10.88;;
37241;SDS011;23135;51.078;12.108;2022-08-21T04:41:53;22.33;;;10.20;;
37241;SDS011;23135;51.078;12.108;2022-08-21T04:44:19;11.93;;;9.50;;
37241;SDS011;23135;51.078;12.108;2022-08-21T04:46:44;13.25;;;10.90;;
37241;SDS011;23135;51.078;12.108;2022-08-21T04:49:10;17.88;;;10.32;;
37241;SDS011;23135;51.078;12.108;2022-08-21T04:51:36;14.80;;;8.82;;
37241;SDS011;23135;51.078;12.108;2022-08-21T04:54:07;15.32;;;10.63;;
37241;SDS011;23135;51.078;12.108;2022-08-21T04:56:44;13.43;;;10.07;;
37241;SDS011;23135;51.078;12.108;2022-08-21T04:59:16;10.93;;;8.82;;
37241;SDS011;23135;51.078;12.108;2022-08-21T05:01:45;13.63;;;10.38;;
37241;SDS011;23135;51.078;12.108;2022-08-21T05:04:12;16.50;;;12.05;;
37241;SDS011;23135;51.078;12.108;2022-08-21T05:06:42;17.02;;;9.75;;
37241;SDS011;23135;51.078;12.108;2022-08-21T05:09:11;17.15;;;11.07;;
37241;SDS011;23135;51.078;12.108;2022-08-21T05:11:39;11.57;;;9.93;;
37241;SDS011;23135;51.078;12.108;2022-08-21T05:14:05;17.60;;;11.80;;
37241;SDS011;23135;51.078;12.108;2022-08-21T05:16:31;12.25;;;9.77;;
37241;SDS011;23135;51.078;12.108;2022-08-21T05:18:57;15.10;;;11.13;;
37241;SDS011;23135;51.078;12.108;2022-08-21T05:21:23;16.95;;;10.70;;
37241;SDS011;23135;51.078;12.108;2022-08-21T05:23:49;15.00;;;10.98;;
37241;SDS011;23135;51.078;12.108;2022-08-21T05:26:14;15.32;;;11.32;;
37241;SDS011;23135;51.078;12.108;2022-08-21T05:28:40;17.88;;;10.10;;
37241;SDS011;23135;51.078;12.108;2022-08-21T05:31:05;15.02;;;10.20;;
37241;SDS011;23135;51.078;12.108;2022-08-21T05:33:31;11.30;;;10.07;;
37241;SDS011;23135;51.078;12.108;2022-08-21T05:35:56;12.95;;;9.60;;
37241;SDS011;23135;51.078;12.108;2022-08-21T05:38:23;14.88;;;9.15;;
37241;SDS011;23135;51.078;12.108;2022-08-21T05:40:50;18.55;;;9.85;;
37241;SDS011;23135;51.078;12.108;2022-08-21T05:43:16;10.95;;;7.85;;
37241;SDS011;23135;51.078;12.108;2022-08-21T05:45:42;10.50;;;8.05;;
37241;SDS011;23135;51.078;12.108;2022-08-21T05:48:18;16.20;;;7.68;;
37241;SDS011;23135;51.078;12.108;2022-08-21T05:50:46;14.93;;;8.32;;
37241;SDS011;23135;51.078;12.108;2022-08-21T05:53:13;8.20;;;6.40;;
37241;SDS011;23135;51.078;12.108;2022-08-21T05:55:40;8.02;;;7.10;;
37241;SDS011;23135;51.078;12.108;2022-08-21T05:58:06;15.77;;;7.43;;
37241;SDS011;23135;51.078;12.108;2022-08-21T06:00:32;7.78;;;7.07;;
37241;SDS011;23135;51.078;12.108;2022-08-21T06:02:58;8.07;;;7.00;;
37241;SDS011;23135;51.078;12.108;2022-08-21T06:05:23;7.32;;;6.57;;
37241;SDS011;23135;51.078;12.108;2022-08-21T06:07:49;12.23;;;6.22;;
37241;SDS011;23135;51.078;12.108;2022-08-21T06:10:14;8.98;;;6.00;;
37241;SDS011;23135;51.078;12.108;2022-08-21T06:12:40;12.52;;;5.75;;
37241;SDS011;23135;51.078;12.108;2022-08-21T06:15:06;10.02;;;5.60;;
37241;SDS011;23135;51.078;12.108;2022-08-21T06:17:32;10.20;;;5.95;;
37241;SDS011;23135;51.078;12.108;2022-08-21T06:19:58;8.90;;;5.82;;
37241;SDS011;23135;51.078;12.108;2022-08-21T06:22:24;18.10;;;6.30;;
37241;SDS011;23135;51.078;12.108;2022-08-21T06:24:49;10.00;;;6.20;;
37241;SDS011;23135;51.078;12.108;2022-08-21T06:27:15;6.35;;;5.25;;
37241;SDS011;23135;51.078;12.108;2022-08-21T06:29:42;10.88;;;5.90;;
37241;SDS011;23135;51.078;12.108;2022-08-21T06:32:10;17.02;;;5.55;;
37241;SDS011;23135;51.078;12.108;2022-08-21T06:34:37;8.95;;;4.93;;
37241;SDS011;23135;51.078;12.108;2022-08-21T06:37:04;7.82;;;5.40;;
37241;SDS011;23135;51.078;12.108;2022-08-21T06:39:30;9.05;;;5.15;;
37241;SDS011;23135;51.078;12.108;2022-08-21T06:41:56;7.88;;;4.43;;
37241;SDS011;23135;51.078;12.108;2022-08-21T06:44:21;14.40;;;5.07;;
37241;SDS011;23135;51.078;12.108;2022-08-21T06:46:47;7.78;;;4.63;;
37241;SDS011;23135;51.078;12.108;2022-08-21T06:49:13;5.95;;;4.10;;
37241;SDS011;23135;51.078;12.108;2022-08-21T06:51:39;8.20;;;3.20;;
37241;SDS011;23135;51.078;12.108;2022-08-21T06:54:05;7.78;;;4.32;;
37241;SDS011;23135;51.078;12.108;2022-08-21T06:56:30;6.50;;;3.75;;
37241;SDS011;23135;51.078;12.108;2022-08-21T06:58:58;6.20;;;3.50;;
37241;SDS011;23135;51.078;12.108;2022-08-21T07:01:24;4.43;;;2.75;;
37241;SDS011;23135;51.078;12.108;2022-08-21T07:03:51;3.40;;;1.95;;
37241;SDS011;23135;51.078;12.108;2022-08-21T07:06:16;5.97;;;2.75;;
37241;SDS011;23135;51.078;12.108;2022-08-21T07:08:42;4.90;;;3.08;;
37241;SDS011;23135;51.078;12.108;2022-08-21T07:11:09;4.40;;;1.75;;
37241;SDS011;23135;51.078;12.108;2022-08-21T07:13:39;3.08;;;1.48;;
37241;SDS011;23135;51.078;12.108;2022-08-21T07:16:05;7.45;;;1.63;;
37241;SDS011;23135;51.078;12.108;2022-08-21T07:18:31;2.35;;;1.52;;
37241;SDS011;23135;51.078;12.108;2022-08-21T07:20:57;7.55;;;2.92;;
37241;SDS011;23135;51.078;12.108;2022-08-21T07:23:24;6.20;;;1.92;;
37241;SDS011;23135;51.078;12.108;2022-08-21T07:25:53;3.55;;;1.73;;
37241;SDS011;23135;51.078;12.108;2022-08-21T07:28:19;6.72;;;1.10;;
37241;SDS011;23135;51.078;12.108;2022-08-21T07:30:44;5.95;;;1.70;;
37241;SDS011;23135;51.078;12.108;2022-08-21T07:33:11;8.40;;;2.03;;
37241;SDS011;23135;51.078;12.108;2022-08-21T07:35:37;3.30;;;2.05;;
37241;SDS011;23135;51.078;12.108;2022-08-21T07:38:02;5.45;;;2.15;;
37241;SDS011;23135;51.078;12.108;2022-08-21T07:40:28;5.95;;;1.95;;
37241;SDS011;23135;51.078;12.108;2022-08-21T07:42:54;9.25;;;1.52;;
37241;SDS011;23135;51.078;12.108;2022-08-21T07:45:20;4.53;;;1.15;;
37241;SDS011;23135;51.078;12.108;2022-08-21T07:47:47;4.05;;;1.40;;
37241;SDS011;23135;51.078;12.108;2022-08-21T07:50:14;6.95;;;1.33;;
37241;SDS011;23135;51.078;12.108;2022-08-21T07:52:40;2.78;;;1.10;;
37241;SDS011;23135;51.078;12.108;2022-08-21T07:55:08;3.35;;;1.17;;
37241;SDS011;23135;51.078;12.108;2022-08-21T07:57:35;3.10;;;0.40;;
37241;SDS011;23135;51.078;12.108;2022-08-21T08:00:03;5.50;;;1.83;;
37241;SDS011;23135;51.078;12.108;2022-08-21T08:02:31;4.35;;;0.68;;
37241;SDS011;23135;51.078;12.108;2022-08-21T08:05:01;3.10;;;1.00;;
37241;SDS011;23135;51.078;12.108;2022-08-21T08:07:31;4.63;;;0.50;;
37241;SDS011;23135;51.078;12.108;2022-08-21T08:09:58;8.65;;;1.30;;
37241;SDS011;23135;51.078;12.108;2022-08-21T08:12:23;2.03;;;0.55;;
37241;SDS011;23135;51.078;12.108;2022-08-21T08:14:54;6.07;;;1.25;;
37241;SDS011;23135;51.078;12.108;2022-08-21T08:17:23;4.82;;;0.80;;
37241;SDS011;23135;51.078;12.108;2022-08-21T08:19:50;2.38;;;0.50;;
37241;SDS011;23135;51.078;12.108;2022-08-21T08:22:16;12.63;;;0.68;;
37241;SDS011;23135;51.078;12.108;2022-08-21T08:24:44;5.00;;;2.25;;
37241;SDS011;23135;51.078;12.108;2022-08-21T08:27:10;12.60;;;1.13;;
37241;SDS011;23135;51.078;12.108;2022-08-21T08:29:36;4.75;;;0.55;;
37241;SDS011;23135;51.078;12.108;2022-08-21T08:32:03;1.02;;;0.30;;
37241;SDS011;23135;51.078;12.108;2022-08-21T08:34:29;4.68;;;0.70;;
37241;SDS011;23135;51.078;12.108;2022-08-21T08:36:55;0.70;;;0.32;;
37241;SDS011;23135;51.078;12.108;2022-08-21T08:39:22;5.45;;;0.60;;
37241;SDS011;23135;51.078;12.108;2022-08-21T08:41:48;3.40;;;0.50;;
37241;SDS011;23135;51.078;12.108;2022-08-21T08:44:16;9.25;;;6.30;;
37241;SDS011;23135;51.078;12.108;2022-08-21T08:46:43;5.68;;;0.80;;
37241;SDS011;23135;51.078;12.108;2022-08-21T08:49:13;1.25;;;0.30;;
37241;SDS011;23135;51.078;12.108;2022-08-21T08:51:46;2.15;;;0.35;;
37241;SDS011;23135;51.078;12.108;2022-08-21T08:54:25;5.10;;;0.50;;
37241;SDS011;23135;51.078;12.108;2022-08-21T08:56:58;3.80;;;0.50;;
37241;SDS011;23135;51.078;12.108;2022-08-21T08:59:27;4.47;;;0.90;;
37241;SDS011;23135;51.078;12.108;2022-08-21T09:02:01;3.13;;;0.35;;
37241;SDS011;23135;51.078;12.108;2022-08-21T09:04:26;2.55;;;0.65;;
37241;SDS011;23135;51.078;12.108;2022-08-21T09:09:39;7.82;;;0.85;;
37241;SDS011;23135;51.078;12.108;2022-08-21T09:20:21;3.08;;;0.60;;
37241;SDS011;23135;51.078;12.108;2022-08-21T09:25:44;3.03;;;0.52;;
37241;SDS011;23135;51.078;12.108;2022-08-21T09:28:18;3.55;;;0.13;;
37241;SDS011;23135;51.078;12.108;2022-08-21T09:30:43;4.85;;;0.52;;
37241;SDS011;23135;51.078;12.108;2022-08-21T09:33:10;3.83;;;0.43;;
37241;SDS011;23135;51.078;12.108;2022-08-21T09:35:47;2.38;;;0.20;;
37241;SDS011;23135;51.078;12.108;2022-08-21T09:38:25;3.63;;;0.20;;
37241;SDS011;23135;51.078;12.108;2022-08-21T09:41:00;3.70;;;0.32;;
37241;SDS011;23135;51.078;12.108;2022-08-21T09:43:31;7.40;;;0.55;;
37241;SDS011;23135;51.078;12.108;2022-08-21T09:46:01;2.95;;;0.28;;
37241;SDS011;23135;51.078;12.108;2022-08-21T09:48:29;1.65;;;0.20;;
37241;SDS011;23135;51.078;12.108;2022-08-21T09:51:06;1.42;;;0.20;;
37241;SDS011;23135;51.078;12.108;2022-08-21T09:54:33;4.18;;;0.40;;
37241;SDS011;23135;51.078;12.108;2022-08-21T09:59:45;3.35;;;0.45;;
37241;SDS011;23135;51.078;12.108;2022-08-21T10:02:26;3.35;;;0.40;;
37241;SDS011;23135;51.078;12.108;2022-08-21T10:04:53;6.05;;;0.95;;
37241;SDS011;23135;51.078;12.108;2022-08-21T10:07:39;6.13;;;0.30;;
37241;SDS011;23135;51.078;12.108;2022-08-21T10:10:06;3.42;;;0.32;;
37241;SDS011;23135;51.078;12.108;2022-08-21T10:18:20;5.75;;;0.25;;
37241;SDS011;23135;51.078;12.108;2022-08-21T10:29:22;6.43;;;0.10;;
37241;SDS011;23135;51.078;12.108;2022-08-21T10:37:31;5.63;;;0.50;;
37241;SDS011;23135;51.078;12.108;2022-08-21T10:42:52;2.33;;;0.10;;
37241;SDS011;23135;51.078;12.108;2022-08-21T10:50:55;5.80;;;0.85;;
37241;SDS011;23135;51.078;12.108;2022-08-21T10:58:39;2.03;;;0.30;;
37241;SDS011;23135;51.078;12.108;2022-08-21T11:01:17;5.45;;;0.52;;
37241;SDS011;23135;51.078;12.108;2022-08-21T11:06:39;4.05;;;0.40;;
37241;SDS011;23135;51.078;12.108;2022-08-21T11:09:15;3.17;;;0.30;;
37241;SDS011;23135;51.078;12.108;2022-08-21T11:11:51;4.03;;;0.30;;
37241;SDS011;23135;51.078;12.108;2022-08-21T11:14:24;3.85;;;0.28;;
37241;SDS011;23135;51.078;12.108;2022-08-21T11:17:10;3.67;;;0.40;;
37241;SDS011;23135;51.078;12.108;2022-08-21T11:22:26;1.50;;;0.30;;
37241;SDS011;23135;51.078;12.108;2022-08-21T11:30:13;3.35;;;0.30;;
37241;SDS011;23135;51.078;12.108;2022-08-21T11:43:48;3.15;;;0.17;;
37241;SDS011;23135;51.078;12.108;2022-08-21T11:46:44;2.58;;;0.20;;
37241;SDS011;23135;51.078;12.108;2022-08-21T11:57:20;2.78;;;0.45;;
37241;SDS011;23135;51.078;12.108;2022-08-21T11:59:49;4.00;;;0.15;;
37241;SDS011;23135;51.078;12.108;2022-08-21T12:02:22;1.35;;;0.43;;
37241;SDS011;23135;51.078;12.108;2022-08-21T12:04:54;2.63;;;0.38;;
37241;SDS011;23135;51.078;12.108;2022-08-21T12:10:00;2.75;;;0.50;;
37241;SDS011;23135;51.078;12.108;2022-08-21T12:12:31;3.55;;;0.40;;
37241;SDS011;23135;51.078;12.108;2022-08-21T12:17:51;4.93;;;0.57;;
37241;SDS011;23135;51.078;12.108;2022-08-21T12:22:52;3.45;;;0.10;;
37241;SDS011;23135;51.078;12.108;2022-08-21T12:25:35;2.92;;;0.93;;
37241;SDS011;23135;51.078;12.108;2022-08-21T12:28:23;4.00;;;0.38;;
37241;SDS011;23135;51.078;12.108;2022-08-21T12:30:50;3.88;;;0.63;;
37241;SDS011;23135;51.078;12.108;2022-08-21T12:38:49;2.58;;;0.25;;
37241;SDS011;23135;51.078;12.108;2022-08-21T12:41:24;4.53;;;0.40;;
37241;SDS011;23135;51.078;12.108;2022-08-21T12:44:09;3.78;;;0.32;;
37241;SDS011;23135;51.078;12.108;2022-08-21T12:46:42;3.83;;;0.60;;
37241;SDS011;23135;51.078;12.108;2022-08-21T12:49:16;2.20;;;0.20;;
37241;SDS011;23135;51.078;12.108;2022-08-21T12:54:31;7.07;;;0.50;;
37241;SDS011;23135;51.078;12.108;2022-08-21T12:57:03;2.80;;;0.30;;
37241;SDS011;23135;51.078;12.108;2022-08-21T12:59:31;5.47;;;0.70;;
37241;SDS011;23135;51.078;12.108;2022-08-21T13:01:58;2.45;;;0.20;;
37241;SDS011;23135;51.078;12.108;2022-08-21T13:04:37;1.85;;;0.22;;
37241;SDS011;23135;51.078;12.108;2022-08-21T13:07:07;4.63;;;0.82;;
37241;SDS011;23135;51.078;12.108;2022-08-21T13:10:02;3.25;;;0.47;;
37241;SDS011;23135;51.078;12.108;2022-08-21T13:12:27;3.95;;;0.30;;
37241;SDS011;23135;51.078;12.108;2022-08-21T13:14:58;3.30;;;0.30;;
37241;SDS011;23135;51.078;12.108;2022-08-21T13:17:29;4.53;;;0.38;;
37241;SDS011;23135;51.078;12.108;2022-08-21T13:20:02;5.05;;;0.73;;
37241;SDS011;23135;51.078;12.108;2022-08-21T13:22:30;3.30;;;0.43;;
37241;SDS011;23135;51.078;12.108;2022-08-21T13:24:56;4.18;;;0.20;;
37241;SDS011;23135;51.078;12.108;2022-08-21T13:32:41;21.35;;;1.35;;
37241;SDS011;23135;51.078;12.108;2022-08-21T13:35:09;3.58;;;0.50;;
37241;SDS011;23135;51.078;12.108;2022-08-21T13:37:41;2.20;;;0.35;;
37241;SDS011;23135;51.078;12.108;2022-08-21T13:40:10;1.52;;;0.10;;
37241;SDS011;23135;51.078;12.108;2022-08-21T13:42:41;2.85;;;0.30;;
37241;SDS011;23135;51.078;12.108;2022-08-21T13:45:14;1.65;;;0.20;;
37241;SDS011;23135;51.078;12.108;2022-08-21T13:47:43;9.98;;;1.20;;
37241;SDS011;23135;51.078;12.108;2022-08-21T13:50:11;3.70;;;0.55;;
37241;SDS011;23135;51.078;12.108;2022-08-21T13:52:46;3.00;;;0.38;;
37241;SDS011;23135;51.078;12.108;2022-08-21T13:55:16;4.82;;;0.40;;
37241;SDS011;23135;51.078;12.108;2022-08-21T13:57:42;1.83;;;0.47;;
37241;SDS011;23135;51.078;12.108;2022-08-21T14:02:51;2.90;;;0.35;;
37241;SDS011;23135;51.078;12.108;2022-08-21T14:05:22;1.33;;;0.45;;
37241;SDS011;23135;51.078;12.108;2022-08-21T14:10:35;1.55;;;0.20;;
37241;SDS011;23135;51.078;12.108;2022-08-21T14:13:14;3.58;;;0.52;;
37241;SDS011;23135;51.078;12.108;2022-08-21T14:15:58;2.55;;;0.47;;
37241;SDS011;23135;51.078;12.108;2022-08-21T14:18:26;1.40;;;0.32;;
37241;SDS011;23135;51.078;12.108;2022-08-21T14:21:08;3.88;;;0.50;;
37241;SDS011;23135;51.078;12.108;2022-08-21T14:23:34;2.85;;;0.57;;
37241;SDS011;23135;51.078;12.108;2022-08-21T14:26:02;1.58;;;0.28;;
37241;SDS011;23135;51.078;12.108;2022-08-21T14:28:31;4.05;;;0.47;;
37241;SDS011;23135;51.078;12.108;2022-08-21T14:31:15;2.20;;;0.25;;
37241;SDS011;23135;51.078;12.108;2022-08-21T14:33:42;1.75;;;0.57;;
37241;SDS011;23135;51.078;12.108;2022-08-21T14:36:09;2.47;;;0.20;;
37241;SDS011;23135;51.078;12.108;2022-08-21T14:38:36;8.38;;;0.45;;
37241;SDS011;23135;51.078;12.108;2022-08-21T14:41:12;3.78;;;0.52;;
37241;SDS011;23135;51.078;12.108;2022-08-21T14:43:41;1.80;;;0.20;;
37241;SDS011;23135;51.078;12.108;2022-08-21T14:46:09;3.45;;;0.50;;
37241;SDS011;23135;51.078;12.108;2022-08-21T14:48:37;3.33;;;0.73;;
37241;SDS011;23135;51.078;12.108;2022-08-21T14:51:04;1.95;;;0.40;;
37241;SDS011;23135;51.078;12.108;2022-08-21T14:53:30;3.13;;;0.32;;
37241;SDS011;23135;51.078;12.108;2022-08-21T14:55:56;2.78;;;0.30;;
37241;SDS011;23135;51.078;12.108;2022-08-21T14:58:32;1.65;;;0.60;;
37241;SDS011;23135;51.078;12.108;2022-08-21T15:00:59;5.05;;;0.20;;
37241;SDS011;23135;51.078;12.108;2022-08-21T15:03:28;3.90;;;0.30;;
37241;SDS011;23135;51.078;12.108;2022-08-21T15:05:55;4.63;;;0.43;;
37241;SDS011;23135;51.078;12.108;2022-08-21T15:08:21;3.90;;;0.63;;
37241;SDS011;23135;51.078;12.108;2022-08-21T15:10:47;5.35;;;0.47;;
37241;SDS011;23135;51.078;12.108;2022-08-21T15:13:13;3.83;;;0.30;;
37241;SDS011;23135;51.078;12.108;2022-08-21T15:15:39;5.25;;;0.95;;
37241;SDS011;23135;51.078;12.108;2022-08-21T15:18:06;1.35;;;0.30;;
37241;SDS011;23135;51.078;12.108;2022-08-21T15:20:33;2.65;;;0.45;;
37241;SDS011;23135;51.078;12.108;2022-08-21T15:22:59;3.45;;;0.50;;
37241;SDS011;23135;51.078;12.108;2022-08-21T15:25:25;3.70;;;0.45;;
37241;SDS011;23135;51.078;12.108;2022-08-21T15:27:50;4.72;;;0.40;;
37241;SDS011;23135;51.078;12.108;2022-08-21T15:30:16;6.78;;;0.73;;
37241;SDS011;23135;51.078;12.108;2022-08-21T15:32:41;4.68;;;0.98;;
37241;SDS011;23135;51.078;12.108;2022-08-21T15:35:07;1.30;;;0.30;;
37241;SDS011;23135;51.078;12.108;2022-08-21T15:37:33;5.40;;;0.38;;
37241;SDS011;23135;51.078;12.108;2022-08-21T15:39:59;2.55;;;0.50;;
37241;SDS011;23135;51.078;12.108;2022-08-21T15:42:25;7.30;;;1.05;;
37241;SDS011;23135;51.078;12.108;2022-08-21T15:44:52;4.38;;;0.47;;
37241;SDS011;23135;51.078;12.108;2022-08-21T15:47:25;7.30;;;0.63;;
37241;SDS011;23135;51.078;12.108;2022-08-21T15:49:58;3.92;;;0.63;;
37241;SDS011;23135;51.078;12.108;2022-08-21T15:52:24;5.38;;;0.45;;
37241;SDS011;23135;51.078;12.108;2022-08-21T15:54:49;3.15;;;0.43;;
37241;SDS011;23135;51.078;12.108;2022-08-21T15:57:16;4.55;;;0.68;;
37241;SDS011;23135;51.078;12.108;2022-08-21T15:59:45;3.88;;;0.30;;
37241;SDS011;23135;51.078;12.108;2022-08-21T16:02:29;4.88;;;0.38;;
37241;SDS011;23135;51.078;12.108;2022-08-21T16:04:56;2.55;;;0.40;;
37241;SDS011;23135;51.078;12.108;2022-08-21T16:07:22;2.67;;;0.60;;
37241;SDS011;23135;51.078;12.108;2022-08-21T16:09:48;5.28;;;0.40;;
37241;SDS011;23135;51.078;12.108;2022-08-21T16:12:17;3.47;;;1.05;;
37241;SDS011;23135;51.078;12.108;2022-08-21T16:14:47;4.97;;;0.93;;
37241;SDS011;23135;51.078;12.108;2022-08-21T16:17:14;1.80;;;0.70;;
37241;SDS011;23135;51.078;12.108;2022-08-21T16:19:40;6.72;;;1.42;;
37241;SDS011;23135;51.078;12.108;2022-08-21T16:22:06;2.72;;;0.40;;